sensor_id;sensor_type;location;lat;lon;timestamp;P1;durP1;ratioP1;P2;durP2;ratioP2
6860;SDS011;3469;47.060;15.460;2023-06-10T00:00:31;8.40;;;6.57;;
6860;SDS011;3469;47.060;15.460;2023-06-10T00:03:01;8.50;;;7.60;;
6860;SDS011;3469;47.060;15.460;2023-06-10T00:05:29;10.00;;;7.83;;
6860;SDS011;3469;47.060;15.460;2023-06-10T00:07:59;10.77;;;9.10;;
6860;SDS011;3469;47.060;15.460;2023-06-10T00:10:28;11.40;;;7.50;;
6860;SDS011;3469;47.060;15.460;2023-06-10T00:12:56;7.73;;;6.90;;
6860;SDS011;3469;47.060;15.460;2023-06-10T00:15:24;10.03;;;7.20;;
6860;SDS011;3469;47.060;15.460;2023-06-10T00:17:53;8.77;;;6.60;;
6860;SDS011;3469;47.060;15.460;2023-06-10T00:20:22;9.37;;;6.97;;
6860;SDS011;3469;47.060;15.460;2023-06-10T00:22:51;11.17;;;8.40;;
6860;SDS011;3469;47.060;15.460;2023-06-10T00:25:21;9.20;;;7.30;;
6860;SDS011;3469;47.060;15.460;2023-06-10T00:27:49;12.03;;;7.80;;
6860;SDS011;3469;47.060;15.460;2023-06-10T00:30:18;9.30;;;7.20;;
6860;SDS011;3469;47.060;15.460;2023-06-10T00:32:46;9.30;;;7.40;;
6860;SDS011;3469;47.060;15.460;2023-06-10T00:35:15;15.20;;;7.60;;
6860;SDS011;3469;47.060;15.460;2023-06-10T00:37:43;9.37;;;7.20;;
6860;SDS011;3469;47.060;15.460;2023-06-10T00:40:12;10.00;;;6.77;;
6860;SDS011;3469;47.060;15.460;2023-06-10T00:42:41;10.07;;;7.27;;
6860;SDS011;3469;47.060;15.460;2023-06-10T00:45:10;9.90;;;6.60;;
6860;SDS011;3469;47.060;15.460;2023-06-10T00:47:38;11.43;;;7.33;;
6860;SDS011;3469;47.060;15.460;2023-06-10T00:50:07;8.73;;;6.97;;
6860;SDS011;3469;47.060;15.460;2023-06-10T00:52:36;8.07;;;7.13;;
6860;SDS011;3469;47.060;15.460;2023-06-10T00:55:04;8.40;;;6.60;;
6860;SDS011;3469;47.060;15.460;2023-06-10T00:57:35;7.80;;;6.47;;
6860;SDS011;3469;47.060;15.460;2023-06-10T01:00:07;8.03;;;6.83;;
6860;SDS011;3469;47.060;15.460;2023-06-10T01:02:37;9.20;;;6.70;;
6860;SDS011;3469;47.060;15.460;2023-06-10T01:05:05;7.70;;;6.37;;
6860;SDS011;3469;47.060;15.460;2023-06-10T01:07:36;7.47;;;6.43;;
6860;SDS011;3469;47.060;15.460;2023-06-10T01:10:11;9.33;;;6.97;;
6860;SDS011;3469;47.060;15.460;2023-06-10T01:12:41;8.60;;;7.07;;
6860;SDS011;3469;47.060;15.460;2023-06-10T01:15:17;8.07;;;7.27;;
6860;SDS011;3469;47.060;15.460;2023-06-10T01:17:55;8.07;;;7.00;;
6860;SDS011;3469;47.060;15.460;2023-06-10T01:20:25;6.93;;;6.13;;
6860;SDS011;3469;47.060;15.460;2023-06-10T01:22:57;7.50;;;6.60;;
6860;SDS011;3469;47.060;15.460;2023-06-10T01:25:27;8.80;;;6.93;;
6860;SDS011;3469;47.060;15.460;2023-06-10T01:28:00;8.23;;;7.33;;
6860;SDS011;3469;47.060;15.460;2023-06-10T01:30:32;8.37;;;6.93;;
6860;SDS011;3469;47.060;15.460;2023-06-10T01:33:06;8.53;;;7.50;;
6860;SDS011;3469;47.060;15.460;2023-06-10T01:35:35;9.20;;;7.33;;
6860;SDS011;3469;47.060;15.460;2023-06-10T01:38:06;8.47;;;7.33;;
6860;SDS011;3469;47.060;15.460;2023-06-10T01:40:35;9.00;;;7.87;;
6860;SDS011;3469;47.060;15.460;2023-06-10T01:43:03;8.60;;;7.33;;
6860;SDS011;3469;47.060;15.460;2023-06-10T01:45:32;7.50;;;6.70;;
6860;SDS011;3469;47.060;15.460;2023-06-10T01:48:00;10.17;;;6.77;;
6860;SDS011;3469;47.060;15.460;2023-06-10T01:50:29;11.00;;;7.03;;
6860;SDS011;3469;47.060;15.460;2023-06-10T01:52:58;8.40;;;6.33;;
6860;SDS011;3469;47.060;15.460;2023-06-10T01:55:28;8.07;;;6.47;;
6860;SDS011;3469;47.060;15.460;2023-06-10T01:57:56;8.43;;;7.10;;
6860;SDS011;3469;47.060;15.460;2023-06-10T02:00:25;11.30;;;8.00;;
6860;SDS011;3469;47.060;15.460;2023-06-10T02:02:53;11.70;;;7.50;;
6860;SDS011;3469;47.060;15.460;2023-06-10T02:05:22;10.27;;;7.10;;
6860;SDS011;3469;47.060;15.460;2023-06-10T02:07:50;10.90;;;7.50;;
6860;SDS011;3469;47.060;15.460;2023-06-10T02:10:20;8.20;;;7.33;;
6860;SDS011;3469;47.060;15.460;2023-06-10T02:12:50;8.80;;;6.80;;
6860;SDS011;3469;47.060;15.460;2023-06-10T02:15:19;8.63;;;6.97;;
6860;SDS011;3469;47.060;15.460;2023-06-10T02:17:47;7.70;;;6.17;;
6860;SDS011;3469;47.060;15.460;2023-06-10T02:20:16;7.70;;;6.30;;
6860;SDS011;3469;47.060;15.460;2023-06-10T02:22:44;9.53;;;6.93;;
6860;SDS011;3469;47.060;15.460;2023-06-10T02:25:13;9.30;;;7.43;;
6860;SDS011;3469;47.060;15.460;2023-06-10T02:27:41;8.93;;;6.73;;
6860;SDS011;3469;47.060;15.460;2023-06-10T02:30:11;9.77;;;7.77;;
6860;SDS011;3469;47.060;15.460;2023-06-10T02:32:41;10.50;;;7.90;;
6860;SDS011;3469;47.060;15.460;2023-06-10T02:35:09;7.53;;;6.50;;
6860;SDS011;3469;47.060;15.460;2023-06-10T02:37:39;8.90;;;7.17;;
6860;SDS011;3469;47.060;15.460;2023-06-10T02:40:08;10.27;;;6.80;;
6860;SDS011;3469;47.060;15.460;2023-06-10T02:42:38;10.23;;;7.40;;
6860;SDS011;3469;47.060;15.460;2023-06-10T02:45:07;8.30;;;6.57;;
6860;SDS011;3469;47.060;15.460;2023-06-10T02:47:41;7.97;;;7.17;;
6860;SDS011;3469;47.060;15.460;2023-06-10T02:50:11;8.30;;;6.77;;
6860;SDS011;3469;47.060;15.460;2023-06-10T02:52:49;9.87;;;7.33;;
6860;SDS011;3469;47.060;15.460;2023-06-10T02:55:18;11.13;;;8.80;;
6860;SDS011;3469;47.060;15.460;2023-06-10T02:57:52;12.37;;;7.07;;
6860;SDS011;3469;47.060;15.460;2023-06-10T03:00:22;10.87;;;7.10;;
6860;SDS011;3469;47.060;15.460;2023-06-10T03:02:52;9.80;;;7.87;;
6860;SDS011;3469;47.060;15.460;2023-06-10T03:05:29;10.13;;;7.03;;
6860;SDS011;3469;47.060;15.460;2023-06-10T03:08:01;9.63;;;7.13;;
6860;SDS011;3469;47.060;15.460;2023-06-10T03:10:31;8.20;;;6.70;;
6860;SDS011;3469;47.060;15.460;2023-06-10T03:13:01;8.10;;;7.20;;
6860;SDS011;3469;47.060;15.460;2023-06-10T03:15:30;9.37;;;7.17;;
6860;SDS011;3469;47.060;15.460;2023-06-10T03:18:03;8.80;;;6.97;;
6860;SDS011;3469;47.060;15.460;2023-06-10T03:20:31;9.27;;;7.40;;
6860;SDS011;3469;47.060;15.460;2023-06-10T03:23:06;10.47;;;7.67;;
6860;SDS011;3469;47.060;15.460;2023-06-10T03:25:34;8.83;;;7.67;;
6860;SDS011;3469;47.060;15.460;2023-06-10T03:28:03;9.10;;;7.30;;
6860;SDS011;3469;47.060;15.460;2023-06-10T03:30:33;10.37;;;7.30;;
6860;SDS011;3469;47.060;15.460;2023-06-10T03:33:03;9.87;;;6.97;;
6860;SDS011;3469;47.060;15.460;2023-06-10T03:35:32;8.03;;;6.33;;
6860;SDS011;3469;47.060;15.460;2023-06-10T03:38:03;9.77;;;7.70;;
6860;SDS011;3469;47.060;15.460;2023-06-10T03:40:32;10.50;;;7.80;;
6860;SDS011;3469;47.060;15.460;2023-06-10T03:43:01;10.60;;;8.27;;
6860;SDS011;3469;47.060;15.460;2023-06-10T03:45:30;8.70;;;7.50;;
6860;SDS011;3469;47.060;15.460;2023-06-10T03:47:59;8.43;;;7.40;;
6860;SDS011;3469;47.060;15.460;2023-06-10T03:50:41;11.73;;;7.80;;
6860;SDS011;3469;47.060;15.460;2023-06-10T03:53:09;9.77;;;8.10;;
6860;SDS011;3469;47.060;15.460;2023-06-10T03:55:40;9.20;;;7.50;;
6860;SDS011;3469;47.060;15.460;2023-06-10T03:58:09;9.70;;;7.60;;
6860;SDS011;3469;47.060;15.460;2023-06-10T04:00:40;9.97;;;8.00;;
6860;SDS011;3469;47.060;15.460;2023-06-10T04:03:09;10.23;;;8.47;;
6860;SDS011;3469;47.060;15.460;2023-06-10T04:05:49;8.73;;;7.67;;
6860;SDS011;3469;47.060;15.460;2023-06-10T04:08:18;12.00;;;9.00;;
6860;SDS011;3469;47.060;15.460;2023-06-10T04:10:47;11.03;;;9.23;;
6860;SDS011;3469;47.060;15.460;2023-06-10T04:13:16;10.13;;;8.10;;
6860;SDS011;3469;47.060;15.460;2023-06-10T04:15:52;11.67;;;8.27;;
6860;SDS011;3469;47.060;15.460;2023-06-10T04:18:22;9.77;;;8.50;;
6860;SDS011;3469;47.060;15.460;2023-06-10T04:20:55;8.27;;;7.47;;
6860;SDS011;3469;47.060;15.460;2023-06-10T04:23:23;9.20;;;7.70;;
6860;SDS011;3469;47.060;15.460;2023-06-10T04:25:53;10.90;;;8.20;;
6860;SDS011;3469;47.060;15.460;2023-06-10T04:28:22;8.00;;;6.67;;
6860;SDS011;3469;47.060;15.460;2023-06-10T04:30:50;8.77;;;7.10;;
6860;SDS011;3469;47.060;15.460;2023-06-10T04:33:18;8.30;;;7.33;;
6860;SDS011;3469;47.060;15.460;2023-06-10T04:35:47;8.37;;;6.90;;
6860;SDS011;3469;47.060;15.460;2023-06-10T04:38:18;11.37;;;6.97;;
6860;SDS011;3469;47.060;15.460;2023-06-10T04:40:47;10.30;;;7.23;;
6860;SDS011;3469;47.060;15.460;2023-06-10T04:43:17;10.90;;;7.90;;
6860;SDS011;3469;47.060;15.460;2023-06-10T04:45:46;10.60;;;7.83;;
6860;SDS011;3469;47.060;15.460;2023-06-10T04:48:14;10.30;;;7.87;;
6860;SDS011;3469;47.060;15.460;2023-06-10T04:50:43;10.80;;;7.17;;
6860;SDS011;3469;47.060;15.460;2023-06-10T04:53:11;8.40;;;7.37;;
6860;SDS011;3469;47.060;15.460;2023-06-10T04:55:45;10.10;;;7.33;;
6860;SDS011;3469;47.060;15.460;2023-06-10T04:58:15;30.20;;;9.17;;
6860;SDS011;3469;47.060;15.460;2023-06-10T05:00:43;8.43;;;6.90;;
6860;SDS011;3469;47.060;15.460;2023-06-10T05:03:11;9.70;;;7.70;;
6860;SDS011;3469;47.060;15.460;2023-06-10T05:05:40;8.40;;;7.37;;
6860;SDS011;3469;47.060;15.460;2023-06-10T05:08:09;9.07;;;7.67;;
6860;SDS011;3469;47.060;15.460;2023-06-10T05:10:37;7.73;;;6.90;;
6860;SDS011;3469;47.060;15.460;2023-06-10T05:13:07;7.13;;;6.30;;
6860;SDS011;3469;47.060;15.460;2023-06-10T05:15:35;9.27;;;7.40;;
6860;SDS011;3469;47.060;15.460;2023-06-10T05:18:04;10.90;;;7.30;;
6860;SDS011;3469;47.060;15.460;2023-06-10T05:20:32;9.63;;;7.60;;
6860;SDS011;3469;47.060;15.460;2023-06-10T05:23:01;8.57;;;7.70;;
6860;SDS011;3469;47.060;15.460;2023-06-10T05:25:30;9.43;;;8.20;;
6860;SDS011;3469;47.060;15.460;2023-06-10T05:27:59;7.90;;;7.10;;
6860;SDS011;3469;47.060;15.460;2023-06-10T05:30:28;9.17;;;7.80;;
6860;SDS011;3469;47.060;15.460;2023-06-10T05:32:57;8.60;;;7.50;;
6860;SDS011;3469;47.060;15.460;2023-06-10T05:35:25;7.77;;;6.97;;
6860;SDS011;3469;47.060;15.460;2023-06-10T05:37:54;9.77;;;7.97;;
6860;SDS011;3469;47.060;15.460;2023-06-10T05:40:22;10.27;;;7.27;;
6860;SDS011;3469;47.060;15.460;2023-06-10T05:42:51;7.80;;;7.10;;
6860;SDS011;3469;47.060;15.460;2023-06-10T05:45:19;7.70;;;6.33;;
6860;SDS011;3469;47.060;15.460;2023-06-10T05:47:49;6.40;;;5.80;;
6860;SDS011;3469;47.060;15.460;2023-06-10T05:50:17;7.50;;;6.80;;
6860;SDS011;3469;47.060;15.460;2023-06-10T05:52:45;9.50;;;7.33;;
6860;SDS011;3469;47.060;15.460;2023-06-10T05:55:14;8.07;;;6.90;;
6860;SDS011;3469;47.060;15.460;2023-06-10T05:57:42;10.10;;;6.80;;
6860;SDS011;3469;47.060;15.460;2023-06-10T06:00:11;7.47;;;6.77;;
6860;SDS011;3469;47.060;15.460;2023-06-10T06:02:41;6.70;;;5.97;;
6860;SDS011;3469;47.060;15.460;2023-06-10T06:05:11;9.33;;;6.80;;
6860;SDS011;3469;47.060;15.460;2023-06-10T06:07:40;6.80;;;6.10;;
6860;SDS011;3469;47.060;15.460;2023-06-10T06:10:08;9.97;;;5.93;;
6860;SDS011;3469;47.060;15.460;2023-06-10T06:12:37;7.13;;;6.40;;
6860;SDS011;3469;47.060;15.460;2023-06-10T06:15:07;7.07;;;6.37;;
6860;SDS011;3469;47.060;15.460;2023-06-10T06:17:37;9.13;;;6.57;;
6860;SDS011;3469;47.060;15.460;2023-06-10T06:20:06;10.17;;;5.93;;
6860;SDS011;3469;47.060;15.460;2023-06-10T06:22:36;7.73;;;6.00;;
6860;SDS011;3469;47.060;15.460;2023-06-10T06:25:05;5.47;;;4.90;;
6860;SDS011;3469;47.060;15.460;2023-06-10T06:27:36;6.10;;;5.50;;
6860;SDS011;3469;47.060;15.460;2023-06-10T06:30:05;7.43;;;6.23;;
6860;SDS011;3469;47.060;15.460;2023-06-10T06:32:34;7.17;;;6.20;;
6860;SDS011;3469;47.060;15.460;2023-06-10T06:35:03;7.07;;;6.37;;
6860;SDS011;3469;47.060;15.460;2023-06-10T06:37:36;6.03;;;5.20;;
6860;SDS011;3469;47.060;15.460;2023-06-10T06:40:17;6.57;;;5.97;;
6860;SDS011;3469;47.060;15.460;2023-06-10T06:42:46;7.07;;;6.37;;
6860;SDS011;3469;47.060;15.460;2023-06-10T06:45:21;7.67;;;6.93;;
6860;SDS011;3469;47.060;15.460;2023-06-10T06:47:49;7.87;;;7.13;;
6860;SDS011;3469;47.060;15.460;2023-06-10T06:50:18;7.83;;;7.03;;
6860;SDS011;3469;47.060;15.460;2023-06-10T06:52:48;8.40;;;7.57;;
6860;SDS011;3469;47.060;15.460;2023-06-10T06:55:16;7.30;;;6.60;;
6860;SDS011;3469;47.060;15.460;2023-06-10T06:57:47;7.57;;;6.57;;
6860;SDS011;3469;47.060;15.460;2023-06-10T07:00:18;7.73;;;6.93;;
6860;SDS011;3469;47.060;15.460;2023-06-10T07:02:49;6.40;;;5.80;;
6860;SDS011;3469;47.060;15.460;2023-06-10T07:05:17;7.27;;;6.57;;
6860;SDS011;3469;47.060;15.460;2023-06-10T07:07:47;7.60;;;6.90;;
6860;SDS011;3469;47.060;15.460;2023-06-10T07:10:22;7.60;;;6.77;;
6860;SDS011;3469;47.060;15.460;2023-06-10T07:12:51;9.20;;;6.70;;
6860;SDS011;3469;47.060;15.460;2023-06-10T07:15:20;6.37;;;5.77;;
6860;SDS011;3469;47.060;15.460;2023-06-10T07:17:49;6.17;;;5.57;;
6860;SDS011;3469;47.060;15.460;2023-06-10T07:20:17;6.87;;;6.17;;
6860;SDS011;3469;47.060;15.460;2023-06-10T07:22:47;5.80;;;4.93;;
6860;SDS011;3469;47.060;15.460;2023-06-10T07:25:16;6.33;;;5.40;;
6860;SDS011;3469;47.060;15.460;2023-06-10T07:27:44;6.53;;;5.83;;
6860;SDS011;3469;47.060;15.460;2023-06-10T07:30:13;8.43;;;6.10;;
6860;SDS011;3469;47.060;15.460;2023-06-10T07:32:42;7.50;;;6.70;;
6860;SDS011;3469;47.060;15.460;2023-06-10T07:35:11;6.90;;;5.60;;
6860;SDS011;3469;47.060;15.460;2023-06-10T07:37:40;6.60;;;5.93;;
6860;SDS011;3469;47.060;15.460;2023-06-10T07:40:10;6.57;;;5.67;;
6860;SDS011;3469;47.060;15.460;2023-06-10T07:42:38;6.30;;;5.70;;
6860;SDS011;3469;47.060;15.460;2023-06-10T07:45:07;6.50;;;5.77;;
6860;SDS011;3469;47.060;15.460;2023-06-10T07:47:36;5.60;;;5.10;;
6860;SDS011;3469;47.060;15.460;2023-06-10T07:50:04;5.90;;;5.37;;
6860;SDS011;3469;47.060;15.460;2023-06-10T07:52:33;5.53;;;5.00;;
6860;SDS011;3469;47.060;15.460;2023-06-10T07:55:01;5.80;;;5.17;;
6860;SDS011;3469;47.060;15.460;2023-06-10T07:57:31;6.40;;;5.77;;
6860;SDS011;3469;47.060;15.460;2023-06-10T08:00:03;5.73;;;5.20;;
6860;SDS011;3469;47.060;15.460;2023-06-10T08:02:38;5.40;;;4.90;;
6860;SDS011;3469;47.060;15.460;2023-06-10T08:05:07;5.27;;;4.77;;
6860;SDS011;3469;47.060;15.460;2023-06-10T08:07:37;5.30;;;4.73;;
6860;SDS011;3469;47.060;15.460;2023-06-10T08:10:05;5.60;;;5.00;;
6860;SDS011;3469;47.060;15.460;2023-06-10T08:12:36;5.40;;;4.90;;
6860;SDS011;3469;47.060;15.460;2023-06-10T08:15:05;5.10;;;4.63;;
6860;SDS011;3469;47.060;15.460;2023-06-10T08:17:34;7.07;;;6.37;;
6860;SDS011;3469;47.060;15.460;2023-06-10T08:20:03;6.13;;;5.53;;
6860;SDS011;3469;47.060;15.460;2023-06-10T08:22:32;5.30;;;4.80;;
6860;SDS011;3469;47.060;15.460;2023-06-10T08:25:00;7.00;;;6.30;;
6860;SDS011;3469;47.060;15.460;2023-06-10T08:27:29;6.30;;;5.70;;
6860;SDS011;3469;47.060;15.460;2023-06-10T08:29:59;6.47;;;5.87;;
6860;SDS011;3469;47.060;15.460;2023-06-10T08:32:30;5.97;;;5.37;;
6860;SDS011;3469;47.060;15.460;2023-06-10T08:34:59;5.10;;;4.70;;
6860;SDS011;3469;47.060;15.460;2023-06-10T08:37:27;6.33;;;5.70;;
6860;SDS011;3469;47.060;15.460;2023-06-10T08:39:58;7.27;;;6.57;;
6860;SDS011;3469;47.060;15.460;2023-06-10T08:42:28;6.80;;;6.10;;
6860;SDS011;3469;47.060;15.460;2023-06-10T08:45:04;6.20;;;5.60;;
6860;SDS011;3469;47.060;15.460;2023-06-10T08:47:34;6.23;;;5.63;;
6860;SDS011;3469;47.060;15.460;2023-06-10T08:50:04;7.30;;;6.30;;
6860;SDS011;3469;47.060;15.460;2023-06-10T08:52:36;7.47;;;5.57;;
6860;SDS011;3469;47.060;15.460;2023-06-10T08:55:11;8.70;;;5.60;;
6860;SDS011;3469;47.060;15.460;2023-06-10T08:57:41;10.00;;;6.67;;
6860;SDS011;3469;47.060;15.460;2023-06-10T09:00:13;7.67;;;6.87;;
6860;SDS011;3469;47.060;15.460;2023-06-10T09:02:45;6.40;;;5.80;;
6860;SDS011;3469;47.060;15.460;2023-06-10T09:05:13;6.83;;;6.10;;
6860;SDS011;3469;47.060;15.460;2023-06-10T09:07:41;7.77;;;6.13;;
6860;SDS011;3469;47.060;15.460;2023-06-10T09:10:10;7.23;;;6.53;;
6860;SDS011;3469;47.060;15.460;2023-06-10T09:12:40;6.00;;;5.40;;
6860;SDS011;3469;47.060;15.460;2023-06-10T09:15:08;6.53;;;5.73;;
6860;SDS011;3469;47.060;15.460;2023-06-10T09:17:40;5.97;;;5.40;;
6860;SDS011;3469;47.060;15.460;2023-06-10T09:20:09;6.97;;;5.57;;
6860;SDS011;3469;47.060;15.460;2023-06-10T09:22:38;6.70;;;6.10;;
6860;SDS011;3469;47.060;15.460;2023-06-10T09:25:11;6.73;;;6.13;;
6860;SDS011;3469;47.060;15.460;2023-06-10T09:27:45;7.37;;;6.57;;
6860;SDS011;3469;47.060;15.460;2023-06-10T09:30:25;6.80;;;6.20;;
6860;SDS011;3469;47.060;15.460;2023-06-10T09:32:59;7.30;;;5.90;;
6860;SDS011;3469;47.060;15.460;2023-06-10T09:35:30;7.50;;;6.70;;
6860;SDS011;3469;47.060;15.460;2023-06-10T09:38:02;6.93;;;6.23;;
6860;SDS011;3469;47.060;15.460;2023-06-10T09:40:30;6.90;;;6.20;;
6860;SDS011;3469;47.060;15.460;2023-06-10T09:42:59;7.00;;;6.10;;
6860;SDS011;3469;47.060;15.460;2023-06-10T09:45:29;6.40;;;5.70;;
6860;SDS011;3469;47.060;15.460;2023-06-10T09:48:00;8.33;;;7.03;;
6860;SDS011;3469;47.060;15.460;2023-06-10T09:50:32;7.97;;;7.13;;
6860;SDS011;3469;47.060;15.460;2023-06-10T09:53:01;7.87;;;7.10;;
6860;SDS011;3469;47.060;15.460;2023-06-10T09:55:31;8.50;;;6.00;;
6860;SDS011;3469;47.060;15.460;2023-06-10T09:58:03;6.73;;;6.00;;
6860;SDS011;3469;47.060;15.460;2023-06-10T10:00:31;7.17;;;6.47;;
6860;SDS011;3469;47.060;15.460;2023-06-10T10:03:01;6.53;;;5.50;;
6860;SDS011;3469;47.060;15.460;2023-06-10T10:05:30;6.67;;;6.07;;
6860;SDS011;3469;47.060;15.460;2023-06-10T10:07:59;7.40;;;6.37;;
6860;SDS011;3469;47.060;15.460;2023-06-10T10:10:27;6.97;;;6.30;;
6860;SDS011;3469;47.060;15.460;2023-06-10T10:12:55;7.37;;;6.67;;
6860;SDS011;3469;47.060;15.460;2023-06-10T10:15:25;10.33;;;7.23;;
6860;SDS011;3469;47.060;15.460;2023-06-10T10:17:58;6.20;;;5.60;;
6860;SDS011;3469;47.060;15.460;2023-06-10T10:20:31;7.30;;;5.73;;
6860;SDS011;3469;47.060;15.460;2023-06-10T10:23:02;7.53;;;6.80;;
6860;SDS011;3469;47.060;15.460;2023-06-10T10:25:32;6.77;;;6.10;;
6860;SDS011;3469;47.060;15.460;2023-06-10T10:28:05;6.93;;;6.30;;
6860;SDS011;3469;47.060;15.460;2023-06-10T10:30:37;7.10;;;6.40;;
6860;SDS011;3469;47.060;15.460;2023-06-10T10:33:12;6.83;;;6.13;;
6860;SDS011;3469;47.060;15.460;2023-06-10T10:35:41;7.00;;;6.30;;
6860;SDS011;3469;47.060;15.460;2023-06-10T10:38:12;7.90;;;7.10;;
6860;SDS011;3469;47.060;15.460;2023-06-10T10:40:42;6.87;;;6.20;;
6860;SDS011;3469;47.060;15.460;2023-06-10T10:43:11;7.30;;;6.60;;
6860;SDS011;3469;47.060;15.460;2023-06-10T10:45:42;7.07;;;6.37;;
6860;SDS011;3469;47.060;15.460;2023-06-10T10:48:12;7.53;;;6.17;;
6860;SDS011;3469;47.060;15.460;2023-06-10T10:50:43;7.50;;;6.80;;
6860;SDS011;3469;47.060;15.460;2023-06-10T10:53:11;7.27;;;6.57;;
6860;SDS011;3469;47.060;15.460;2023-06-10T10:55:57;8.03;;;5.83;;
6860;SDS011;3469;47.060;15.460;2023-06-10T10:58:26;5.50;;;5.00;;
6860;SDS011;3469;47.060;15.460;2023-06-10T11:00:55;5.87;;;5.37;;
6860;SDS011;3469;47.060;15.460;2023-06-10T11:03:27;6.03;;;5.50;;
6860;SDS011;3469;47.060;15.460;2023-06-10T11:05:57;6.90;;;6.20;;
6860;SDS011;3469;47.060;15.460;2023-06-10T11:11:17;5.57;;;5.07;;
6860;SDS011;3469;47.060;15.460;2023-06-10T11:14:06;6.63;;;6.03;;
6860;SDS011;3469;47.060;15.460;2023-06-10T11:16:39;5.87;;;5.37;;
6860;SDS011;3469;47.060;15.460;2023-06-10T11:19:11;7.00;;;5.20;;
6860;SDS011;3469;47.060;15.460;2023-06-10T11:21:59;6.23;;;5.73;;
6860;SDS011;3469;47.060;15.460;2023-06-10T11:24:28;5.50;;;5.00;;
6860;SDS011;3469;47.060;15.460;2023-06-10T11:29:57;6.80;;;6.10;;
6860;SDS011;3469;47.060;15.460;2023-06-10T11:32:29;5.60;;;5.00;;
6860;SDS011;3469;47.060;15.460;2023-06-10T11:35:01;5.97;;;5.47;;
6860;SDS011;3469;47.060;15.460;2023-06-10T11:37:31;5.80;;;5.20;;
6860;SDS011;3469;47.060;15.460;2023-06-10T11:39:59;5.60;;;5.10;;
6860;SDS011;3469;47.060;15.460;2023-06-10T11:42:27;5.40;;;5.00;;
6860;SDS011;3469;47.060;15.460;2023-06-10T11:44:56;5.80;;;5.30;;
6860;SDS011;3469;47.060;15.460;2023-06-10T11:47:24;5.00;;;4.60;;
6860;SDS011;3469;47.060;15.460;2023-06-10T11:49:55;5.03;;;4.63;;
6860;SDS011;3469;47.060;15.460;2023-06-10T11:52:27;5.30;;;4.70;;
6860;SDS011;3469;47.060;15.460;2023-06-10T11:54:57;5.33;;;4.83;;
6860;SDS011;3469;47.060;15.460;2023-06-10T11:57:26;5.80;;;5.30;;
6860;SDS011;3469;47.060;15.460;2023-06-10T11:59:54;5.10;;;4.60;;
6860;SDS011;3469;47.060;15.460;2023-06-10T12:02:22;5.93;;;5.43;;
6860;SDS011;3469;47.060;15.460;2023-06-10T12:04:51;5.43;;;4.93;;
6860;SDS011;3469;47.060;15.460;2023-06-10T12:07:20;5.20;;;4.80;;
6860;SDS011;3469;47.060;15.460;2023-06-10T12:09:59;4.50;;;4.10;;
6860;SDS011;3469;47.060;15.460;2023-06-10T12:12:44;5.33;;;4.83;;
6860;SDS011;3469;47.060;15.460;2023-06-10T12:15:22;4.80;;;4.40;;
6860;SDS011;3469;47.060;15.460;2023-06-10T12:17:51;5.97;;;5.43;;
6860;SDS011;3469;47.060;15.460;2023-06-10T12:20:26;7.53;;;5.27;;
6860;SDS011;3469;47.060;15.460;2023-06-10T12:22:55;4.97;;;4.57;;
6860;SDS011;3469;47.060;15.460;2023-06-10T12:25:26;5.13;;;4.63;;
6860;SDS011;3469;47.060;15.460;2023-06-10T12:27:56;4.50;;;4.10;;
6860;SDS011;3469;47.060;15.460;2023-06-10T12:30:26;4.47;;;4.07;;
6860;SDS011;3469;47.060;15.460;2023-06-10T12:32:55;4.40;;;4.00;;
6860;SDS011;3469;47.060;15.460;2023-06-10T12:35:24;4.80;;;4.33;;
6860;SDS011;3469;47.060;15.460;2023-06-10T12:37:54;4.63;;;4.23;;
6860;SDS011;3469;47.060;15.460;2023-06-10T12:40:28;4.83;;;4.43;;
6860;SDS011;3469;47.060;15.460;2023-06-10T12:42:58;4.70;;;4.27;;
6860;SDS011;3469;47.060;15.460;2023-06-10T12:45:27;5.23;;;4.73;;
6860;SDS011;3469;47.060;15.460;2023-06-10T12:48:07;5.60;;;4.70;;
6860;SDS011;3469;47.060;15.460;2023-06-10T12:50:37;6.00;;;5.00;;
6860;SDS011;3469;47.060;15.460;2023-06-10T12:53:07;6.47;;;5.13;;
6860;SDS011;3469;47.060;15.460;2023-06-10T12:55:37;4.80;;;4.33;;
6860;SDS011;3469;47.060;15.460;2023-06-10T12:58:06;4.90;;;4.50;;
6860;SDS011;3469;47.060;15.460;2023-06-10T13:00:36;6.20;;;4.60;;
6860;SDS011;3469;47.060;15.460;2023-06-10T13:03:04;5.30;;;4.80;;
6860;SDS011;3469;47.060;15.460;2023-06-10T13:05:34;5.67;;;4.60;;
6860;SDS011;3469;47.060;15.460;2023-06-10T13:08:06;5.20;;;4.70;;
6860;SDS011;3469;47.060;15.460;2023-06-10T13:10:38;5.03;;;4.53;;
6860;SDS011;3469;47.060;15.460;2023-06-10T13:13:07;4.57;;;4.17;;
6860;SDS011;3469;47.060;15.460;2023-06-10T13:15:36;5.27;;;4.77;;
6860;SDS011;3469;47.060;15.460;2023-06-10T13:18:09;5.27;;;4.73;;
6860;SDS011;3469;47.060;15.460;2023-06-10T13:20:38;5.70;;;4.93;;
6860;SDS011;3469;47.060;15.460;2023-06-10T13:23:07;6.40;;;4.30;;
6860;SDS011;3469;47.060;15.460;2023-06-10T13:25:35;5.50;;;4.57;;
6860;SDS011;3469;47.060;15.460;2023-06-10T13:28:05;5.27;;;4.77;;
6860;SDS011;3469;47.060;15.460;2023-06-10T13:30:34;6.07;;;4.57;;
6860;SDS011;3469;47.060;15.460;2023-06-10T13:33:02;5.20;;;4.70;;
6860;SDS011;3469;47.060;15.460;2023-06-10T13:35:31;4.37;;;3.97;;
6860;SDS011;3469;47.060;15.460;2023-06-10T13:37:59;4.07;;;3.67;;
6860;SDS011;3469;47.060;15.460;2023-06-10T13:40:28;5.03;;;4.53;;
6860;SDS011;3469;47.060;15.460;2023-06-10T13:42:56;5.10;;;4.20;;
6860;SDS011;3469;47.060;15.460;2023-06-10T13:45:26;4.63;;;4.23;;
6860;SDS011;3469;47.060;15.460;2023-06-10T13:47:55;4.43;;;3.30;;
6860;SDS011;3469;47.060;15.460;2023-06-10T13:50:24;3.60;;;3.30;;
6860;SDS011;3469;47.060;15.460;2023-06-10T13:52:52;3.33;;;3.03;;
6860;SDS011;3469;47.060;15.460;2023-06-10T13:55:21;3.97;;;3.67;;
6860;SDS011;3469;47.060;15.460;2023-06-10T13:57:51;3.80;;;3.50;;
6860;SDS011;3469;47.060;15.460;2023-06-10T14:00:19;3.73;;;3.43;;
6860;SDS011;3469;47.060;15.460;2023-06-10T14:02:50;5.20;;;3.80;;
6860;SDS011;3469;47.060;15.460;2023-06-10T14:05:18;5.10;;;4.60;;
6860;SDS011;3469;47.060;15.460;2023-06-10T14:07:47;5.27;;;4.43;;
6860;SDS011;3469;47.060;15.460;2023-06-10T14:10:15;4.77;;;4.37;;
6860;SDS011;3469;47.060;15.460;2023-06-10T14:12:43;5.83;;;4.70;;
6860;SDS011;3469;47.060;15.460;2023-06-10T14:15:12;5.00;;;4.50;;
6860;SDS011;3469;47.060;15.460;2023-06-10T14:17:41;5.60;;;4.43;;
6860;SDS011;3469;47.060;15.460;2023-06-10T14:20:11;7.90;;;6.00;;
6860;SDS011;3469;47.060;15.460;2023-06-10T14:22:40;7.47;;;6.43;;
6860;SDS011;3469;47.060;15.460;2023-06-10T14:25:09;6.80;;;5.80;;
6860;SDS011;3469;47.060;15.460;2023-06-10T14:27:38;6.73;;;5.80;;
6860;SDS011;3469;47.060;15.460;2023-06-10T14:30:07;8.63;;;6.93;;
6860;SDS011;3469;47.060;15.460;2023-06-10T14:32:36;7.20;;;6.37;;
6860;SDS011;3469;47.060;15.460;2023-06-10T14:35:04;7.60;;;6.47;;
6860;SDS011;3469;47.060;15.460;2023-06-10T14:37:36;7.50;;;6.73;;
6860;SDS011;3469;47.060;15.460;2023-06-10T14:40:05;8.80;;;5.50;;
6860;SDS011;3469;47.060;15.460;2023-06-10T14:42:34;7.10;;;5.60;;
6860;SDS011;3469;47.060;15.460;2023-06-10T14:45:03;7.10;;;5.90;;
6860;SDS011;3469;47.060;15.460;2023-06-10T14:47:33;6.63;;;6.03;;
6860;SDS011;3469;47.060;15.460;2023-06-10T14:50:02;6.13;;;5.53;;
6860;SDS011;3469;47.060;15.460;2023-06-10T14:52:30;6.43;;;5.83;;
6860;SDS011;3469;47.060;15.460;2023-06-10T14:55:01;6.73;;;5.87;;
6860;SDS011;3469;47.060;15.460;2023-06-10T14:57:29;6.47;;;5.83;;
6860;SDS011;3469;47.060;15.460;2023-06-10T15:00:02;6.07;;;5.30;;
6860;SDS011;3469;47.060;15.460;2023-06-10T15:02:31;5.83;;;5.23;;
6860;SDS011;3469;47.060;15.460;2023-06-10T15:04:59;5.73;;;4.50;;
6860;SDS011;3469;47.060;15.460;2023-06-10T15:07:28;5.73;;;5.20;;
6860;SDS011;3469;47.060;15.460;2023-06-10T15:09:56;6.37;;;5.10;;
6860;SDS011;3469;47.060;15.460;2023-06-10T15:12:26;5.30;;;4.80;;
6860;SDS011;3469;47.060;15.460;2023-06-10T15:14:55;5.13;;;4.17;;
6860;SDS011;3469;47.060;15.460;2023-06-10T15:17:23;5.37;;;4.40;;
6860;SDS011;3469;47.060;15.460;2023-06-10T15:19:51;5.37;;;4.87;;
6860;SDS011;3469;47.060;15.460;2023-06-10T15:22:22;5.60;;;5.07;;